Time;durP1;ratioP1;P1;durP2;ratioP2;P2;SDS_P1;SDS_P2;PMS_P1;PMS_P2;Temp;Humidity;BMP_temperature;BMP_pressure;BME280_temperature;BME280_humidity;BME280_pressure;Samples;Min_cycle;Max_cycle;Signal;HPM_P1;HPM_P2
2022/08/21 00:01:06;;;;;;;4.45;3.70;;;;;;;;;;4663979;28;10000494;-78
2022/08/21 00:03:33;;;;;;;3.90;3.42;;;;;;;;;;5015834;28;20049;-78
2022/08/21 00:05:59;;;;;;;4.05;3.65;;;;;;;;;;5019729;28;20070;-78
2022/08/21 00:08:25;;;;;;;4.20;3.80;;;;;;;;;;5028753;28;20104;-78
2022/08/21 00:10:51;;;;;;;4.07;3.55;;;;;;;;;;5013551;28;20041;-78
2022/08/21 00:13:19;;;;;;;5.32;3.88;;;;;;;;;;5008723;28;20651;-78
2022/08/21 00:15:46;;;;;;;4.47;3.83;;;;;;;;;;5027593;28;20021;-78
2022/08/21 00:18:12;;;;;;;7.90;4.30;;;;;;;;;;5023307;28;20049;-78
2022/08/21 00:20:39;;;;;;;6.10;4.20;;;;;;;;;;5010565;28;20025;-78
2022/08/21 00:23:05;;;;;;;4.82;3.95;;;;;;;;;;5025312;28;20033;-78
2022/08/21 00:25:31;;;;;;;4.68;4.28;;;;;;;;;;5028374;28;20030;-78
2022/08/21 00:27:57;;;;;;;6.65;5.20;;;;;;;;;;5028245;28;20029;-79
2022/08/21 00:30:24;;;;;;;5.72;4.32;;;;;;;;;;5025302;28;20045;-79
2022/08/21 00:32:51;;;;;;;5.82;4.25;;;;;;;;;;5005411;28;20026;-79
2022/08/21 00:35:19;;;;;;;4.60;4.00;;;;;;;;;;5013862;28;20021;-78
2022/08/21 00:37:45;;;;;;;4.28;3.60;;;;;;;;;;5021822;28;20053;-78
2022/08/21 00:40:13;;;;;;;5.13;3.60;;;;;;;;;;5016301;28;20465;-78
2022/08/21 00:42:39;;;;;;;3.80;3.40;;;;;;;;;;5019777;28;20079;-79
2022/08/21 00:45:06;;;;;;;5.82;3.70;;;;;;;;;;5026940;28;20120;-79
2022/08/21 00:47:32;;;;;;;5.43;4.05;;;;;;;;;;5022623;28;20026;-78
2022/08/21 00:49:58;;;;;;;7.00;3.72;;;;;;;;;;5019978;28;20359;-78
2022/08/21 00:52:27;;;;;;;6.25;4.07;;;;;;;;;;5013161;28;20025;-79
2022/08/21 00:54:54;;;;;;;11.13;5.95;;;;;;;;;;5014937;28;20120;-78
2022/08/21 00:57:22;;;;;;;8.15;6.97;;;;;;;;;;5026392;28;20515;-78
2022/08/21 00:59:50;;;;;;;10.35;7.45;;;;;;;;;;5020078;28;20041;-79
2022/08/21 01:02:16;;;;;;;11.80;7.20;;;;;;;;;;5013676;28;20421;-79
2022/08/21 01:04:42;;;;;;;9.32;7.70;;;;;;;;;;5019139;28;20466;-79
2022/08/21 01:07:08;;;;;;;8.20;6.85;;;;;;;;;;5010903;28;20033;-78
2022/08/21 01:09:34;;;;;;;8.80;6.45;;;;;;;;;;5012362;28;20022;-78
2022/08/21 01:12:01;;;;;;;9.00;6.80;;;;;;;;;;5012471;28;20031;-78
2022/08/21 01:14:28;;;;;;;6.82;6.13;;;;;;;;;;5017624;28;20056;-78
2022/08/21 01:16:54;;;;;;;7.00;6.05;;;;;;;;;;5036169;28;20564;-79
2022/08/21 01:19:21;;;;;;;7.43;6.70;;;;;;;;;;5024508;28;20408;-78
2022/08/21 01:21:47;;;;;;;8.25;6.85;;;;;;;;;;5017446;28;20025;-78
2022/08/21 01:24:14;;;;;;;9.20;7.03;;;;;;;;;;5019781;28;20481;-78
2022/08/21 01:26:40;;;;;;;8.40;7.50;;;;;;;;;;5024233;28;20022;-78
2022/08/21 01:29:13;;;;;;;7.88;6.95;;;;;;;;;;5023329;28;20029;-78
2022/08/21 01:31:40;;;;;;;9.57;7.50;;;;;;;;;;5022001;28;20389;-78
2022/08/21 01:34:06;;;;;;;9.52;7.80;;;;;;;;;;5018550;28;20393;-78
2022/08/21 01:36:32;;;;;;;8.55;7.18;;;;;;;;;;5021730;28;20026;-78
2022/08/21 01:38:58;;;;;;;8.50;7.63;;;;;;;;;;5022530;28;20059;-78
2022/08/21 01:41:24;;;;;;;8.98;7.65;;;;;;;;;;5014434;28;20449;-78
2022/08/21 01:43:50;;;;;;;8.90;6.70;;;;;;;;;;5012693;28;20046;-79
2022/08/21 01:46:16;;;;;;;6.97;6.28;;;;;;;;;;5023935;28;20029;-78
2022/08/21 01:48:43;;;;;;;7.35;6.18;;;;;;;;;;5024808;28;20477;-78
2022/08/21 01:51:10;;;;;;;8.30;6.97;;;;;;;;;;5015806;28;20022;-79
2022/08/21 01:53:36;;;;;;;6.93;6.22;;;;;;;;;;5019683;28;20022;-78
2022/08/21 01:56:04;;;;;;;7.95;6.45;;;;;;;;;;5016559;28;20152;-78
2022/08/21 01:58:30;;;;;;;5.95;5.38;;;;;;;;;;5019044;28;20050;-78
2022/08/21 02:00:56;;;;;;;6.97;6.28;;;;;;;;;;5018249;28;20386;-78
2022/08/21 02:03:22;;;;;;;6.53;5.32;;;;;;;;;;5011259;28;20026;-78
2022/08/21 02:05:48;;;;;;;6.18;5.55;;;;;;;;;;5022137;28;20398;-78
2022/08/21 02:08:14;;;;;;;8.07;6.47;;;;;;;;;;5015806;28;20026;-78
2022/08/21 02:10:40;;;;;;;7.60;6.18;;;;;;;;;;5023076;28;20033;-78
2022/08/21 02:13:07;;;;;;;6.60;5.70;;;;;;;;;;5013440;28;20038;-78
2022/08/21 02:15:33;;;;;;;9.13;6.05;;;;;;;;;;5011363;28;20400;-78
2022/08/21 02:18:00;;;;;;;6.30;5.57;;;;;;;;;;5016128;28;20033;-78
2022/08/21 02:20:31;;;;;;;7.80;5.03;;;;;;;;;;5021126;28;20462;-79
2022/08/21 02:22:57;;;;;;;6.65;5.40;;;;;;;;;;5023806;28;20037;-78
2022/08/21 02:25:24;;;;;;;8.32;6.55;;;;;;;;;;5024783;28;20485;-78
2022/08/21 02:27:50;;;;;;;10.18;6.78;;;;;;;;;;5021573;28;20037;-78
2022/08/21 02:30:21;;;;;;;7.30;5.55;;;;;;;;;;5014558;28;20500;-78
2022/08/21 02:32:48;;;;;;;7.65;6.18;;;;;;;;;;5016983;28;20045;-78
2022/08/21 02:35:14;;;;;;;5.97;5.15;;;;;;;;;;5013338;28;20030;-79
2022/08/21 02:37:44;;;;;;;8.65;6.07;;;;;;;;;;5013595;28;20064;-78
2022/08/21 02:40:11;;;;;;;7.03;5.53;;;;;;;;;;5021928;28;20036;-78
2022/08/21 02:42:38;;;;;;;5.75;5.10;;;;;;;;;;5019498;28;20021;-78
2022/08/21 02:45:04;;;;;;;5.20;4.70;;;;;;;;;;5019083;28;20222;-78
2022/08/21 02:47:30;;;;;;;4.57;4.10;;;;;;;;;;5012853;28;20033;-78
2022/08/21 02:49:56;;;;;;;4.93;4.38;;;;;;;;;;5015048;28;20558;-78
2022/08/21 02:52:23;;;;;;;5.10;4.55;;;;;;;;;;5019508;28;20041;-78
2022/08/21 02:54:50;;;;;;;7.82;4.65;;;;;;;;;;5019087;28;20061;-78
2022/08/21 02:57:16;;;;;;;5.60;4.57;;;;;;;;;;5025685;28;20741;-78
2022/08/21 02:59:42;;;;;;;6.53;4.53;;;;;;;;;;5026162;28;20091;-78
2022/08/21 03:02:08;;;;;;;10.13;6.38;;;;;;;;;;5024064;28;20030;-79
2022/08/21 03:04:34;;;;;;;6.50;5.82;;;;;;;;;;5012886;28;20037;-78
2022/08/21 03:07:00;;;;;;;7.95;6.30;;;;;;;;;;5016311;28;20032;-78
2022/08/21 03:09:26;;;;;;;6.68;6.00;;;;;;;;;;5013443;28;20109;-79
2022/08/21 03:11:52;;;;;;;8.75;6.82;;;;;;;;;;5003943;28;20169;-78
2022/08/21 03:14:18;;;;;;;9.23;7.00;;;;;;;;;;5004404;28;20054;-78
2022/08/21 03:16:44;;;;;;;8.00;6.40;;;;;;;;;;5006000;28;20069;-78
2022/08/21 03:19:10;;;;;;;7.00;6.30;;;;;;;;;;5014856;28;20021;-78
2022/08/21 03:21:36;;;;;;;6.78;5.82;;;;;;;;;;5016106;28;20060;-78
2022/08/21 03:24:03;;;;;;;6.13;5.45;;;;;;;;;;5019745;28;20321;-78
2022/08/21 03:26:29;;;;;;;6.75;6.05;;;;;;;;;;5010059;28;20026;-78
2022/08/21 03:28:56;;;;;;;5.63;4.97;;;;;;;;;;5015293;28;20108;-78
2022/08/21 03:31:22;;;;;;;5.35;4.85;;;;;;;;;;5019912;28;20029;-78
2022/08/21 03:33:48;;;;;;;6.60;5.63;;;;;;;;;;5024029;28;20095;-78
2022/08/21 03:36:14;;;;;;;9.43;7.07;;;;;;;;;;5027353;28;20030;-78
2022/08/21 03:38:40;;;;;;;7.80;6.97;;;;;;;;;;5015288;28;20398;-78
2022/08/21 03:41:07;;;;;;;7.60;6.88;;;;;;;;;;5025651;28;20108;-79
2022/08/21 03:43:33;;;;;;;6.80;6.15;;;;;;;;;;5022592;28;20516;-78
2022/08/21 03:46:01;;;;;;;6.97;6.20;;;;;;;;;;5021484;28;20049;-78
2022/08/21 03:48:27;;;;;;;7.72;6.97;;;;;;;;;;5010714;28;20051;-78
2022/08/21 03:50:53;;;;;;;10.18;7.13;;;;;;;;;;5020047;28;20466;-78
2022/08/21 03:53:19;;;;;;;9.57;7.57;;;;;;;;;;5013427;28;20583;-78
2022/08/21 03:55:47;;;;;;;10.70;8.52;;;;;;;;;;5021499;28;20366;-78
2022/08/21 03:58:14;;;;;;;8.95;8.05;;;;;;;;;;5025947;28;20135;-78
2022/08/21 04:00:39;;;;;;;8.40;7.60;;;;;;;;;;5019933;28;20338;-78
2022/08/21 04:03:06;;;;;;;8.88;7.97;;;;;;;;;;5015667;28;20476;-78
2022/08/21 04:05:32;;;;;;;8.55;7.75;;;;;;;;;;5028762;28;20030;-78
2022/08/21 04:07:59;;;;;;;7.10;6.40;;;;;;;;;;5021928;28;20034;-78
2022/08/21 04:10:26;;;;;;;7.15;6.45;;;;;;;;;;5021639;28;20261;-78
2022/08/21 04:12:53;;;;;;;6.82;6.20;;;;;;;;;;5009933;28;20018;-78
2022/08/21 04:15:19;;;;;;;8.73;7.28;;;;;;;;;;5012717;28;20021;-78
2022/08/21 04:17:45;;;;;;;8.27;7.05;;;;;;;;;;5013345;28;20107;-78
2022/08/21 04:20:12;;;;;;;7.68;6.85;;;;;;;;;;5019936;28;20052;-78
2022/08/21 04:22:38;;;;;;;7.85;6.65;;;;;;;;;;5020978;28;20111;-78
2022/08/21 04:25:05;;;;;;;8.25;7.40;;;;;;;;;;5022490;28;20356;-78
2022/08/21 04:27:31;;;;;;;7.40;6.60;;;;;;;;;;5008567;28;20061;-78
2022/08/21 04:29:57;;;;;;;7.45;6.57;;;;;;;;;;5023993;28;20111;-78
2022/08/21 04:32:23;;;;;;;7.50;6.85;;;;;;;;;;5023920;28;20032;-78
2022/08/21 04:34:49;;;;;;;13.98;9.18;;;;;;;;;;5015455;28;20529;-78
2022/08/21 04:37:15;;;;;;;8.95;7.90;;;;;;;;;;5023384;28;20022;-78
2022/08/21 04:39:42;;;;;;;9.88;7.75;;;;;;;;;;5016529;28;20040;-78
2022/08/21 04:42:09;;;;;;;7.55;6.82;;;;;;;;;;5021793;28;20025;-78
2022/08/21 04:44:35;;;;;;;9.57;7.72;;;;;;;;;;5023377;28;20112;-78
2022/08/21 04:47:01;;;;;;;8.52;7.72;;;;;;;;;;5016913;28;20088;-78
2022/08/21 04:49:27;;;;;;;8.80;7.90;;;;;;;;;;5020764;28;20030;-78
2022/08/21 04:51:53;;;;;;;9.27;7.80;;;;;;;;;;5011332;28;20037;-78
2022/08/21 04:54:21;;;;;;;9.60;8.60;;;;;;;;;;5017654;28;20067;-78
2022/08/21 04:56:47;;;;;;;8.68;7.78;;;;;;;;;;5026075;28;20029;-78
2022/08/21 04:59:27;;;;;;;9.30;8.40;;;;;;;;;;5015243;28;20121;-78
2022/08/21 05:01:57;;;;;;;21.10;7.00;;;;;;;;;;5020613;28;20024;-78
2022/08/21 05:04:25;;;;;;;15.35;6.63;;;;;;;;;;5019854;28;20092;-78
2022/08/21 05:06:52;;;;;;;5.70;5.20;;;;;;;;;;5020157;28;20033;-78
2022/08/21 05:09:18;;;;;;;4.75;4.45;;;;;;;;;;5018286;28;20036;-78
2022/08/21 05:11:45;;;;;;;5.15;4.65;;;;;;;;;;5024941;28;20114;-78
2022/08/21 05:14:12;;;;;;;6.65;6.05;;;15.10;99.90;;;;;;5022691;28;20025;-77
2022/08/21 05:16:38;;;;;;;6.38;5.75;;;15.20;99.90;;;;;;5021257;28;20022;-77
2022/08/21 05:19:08;;;;;;;6.72;6.00;;;15.30;99.90;;;;;;5023421;28;20119;-78
2022/08/21 05:21:35;;;;;;;6.03;5.53;;;15.40;99.90;;;;;;5010770;28;20401;-77
2022/08/21 05:24:00;;;;;;;5.32;4.93;;;15.40;99.90;;;;;;5023603;28;20026;-77
2022/08/21 05:26:26;;;;;;;4.05;3.75;;;15.50;99.90;;;;;;5022859;28;20033;-78
2022/08/21 05:28:51;;;;;;;4.65;4.13;;;15.40;99.90;;;;;;5021164;28;20029;-78
2022/08/21 05:31:17;;;;;;;6.60;6.00;;;15.50;99.90;;;;;;5020901;28;20041;-77
2022/08/21 05:33:43;;;;;;;10.07;9.18;;;15.50;99.90;;;;;;5026207;28;20029;-77
2022/08/21 05:36:08;;;;;;;10.27;9.27;;;15.60;99.90;;;;;;5020688;28;20030;-77
2022/08/21 05:38:34;;;;;;;10.90;9.85;;;15.70;99.90;;;;;;5019919;28;20030;-77
2022/08/21 05:41:00;;;;;;;8.50;7.70;;;15.70;99.90;;;;;;5024025;28;20422;-78
2022/08/21 05:43:25;;;;;;;9.00;8.30;;;15.60;99.90;;;;;;5013424;28;20533;-78
2022/08/21 05:45:51;;;;;;;9.70;8.90;;;15.60;99.90;;;;;;5022836;28;20041;-77
2022/08/21 05:48:20;;;;;;;8.30;7.60;;;15.60;99.90;;;;;;5018283;28;20694;-77
2022/08/21 05:50:47;;;;;;;9.43;8.55;;;15.70;99.90;;;;;;5020780;28;20033;-77
2022/08/21 05:53:14;;;;;;;9.18;8.20;;;15.80;99.90;;;;;;5021045;28;20086;-77
2022/08/21 05:55:40;;;;;;;9.50;8.65;;;15.80;99.90;;;;;;5010648;28;20025;-77
2022/08/21 05:58:06;;;;;;;9.23;8.27;;;15.90;99.90;;;;;;5015832;28;20030;-77
2022/08/21 06:00:32;;;;;;;11.15;9.68;;;15.90;99.90;;;;;;5019052;28;20026;-77
2022/08/21 06:02:57;;;;;;;9.88;8.43;;;16.00;99.90;;;;;;5018305;28;20029;-77
2022/08/21 06:05:23;;;;;;;14.32;9.80;;;16.10;99.90;;;;;;5007885;28;20091;-78
2022/08/21 06:07:49;;;;;;;10.02;9.02;;;16.10;99.90;;;;;;5024988;28;20325;-78
2022/08/21 06:10:14;;;;;;;9.90;8.82;;;16.10;99.90;;;;;;5024457;28;20034;-77
2022/08/21 06:12:40;;;;;;;11.05;8.95;;;16.20;99.90;;;;;;5007870;28;20120;-77
2022/08/21 06:15:06;;;;;;;10.95;9.85;;;16.20;99.90;;;;;;5014515;28;20112;-77
2022/08/21 06:17:32;;;;;;;12.10;9.10;;;16.20;99.90;;;;;;5007814;28;20623;-77
2022/08/21 06:19:57;;;;;;;8.50;7.72;;;16.10;99.90;;;;;;5006869;28;20036;-78
2022/08/21 06:22:23;;;;;;;8.88;8.00;;;16.20;99.90;;;;;;5003725;28;20436;-77
2022/08/21 06:24:49;;;;;;;9.38;8.15;;;16.20;99.90;;;;;;5023290;28;20030;-77
2022/08/21 06:27:15;;;;;;;9.88;8.85;;;16.20;99.90;;;;;;5016791;28;20044;-77
2022/08/21 06:29:41;;;;;;;10.68;9.40;;;16.20;99.90;;;;;;5016741;28;20026;-77
2022/08/21 06:32:10;;;;;;;12.43;9.40;;;16.30;99.90;;;;;;5008592;28;20074;-77
2022/08/21 06:34:40;;;;;;;9.95;8.80;;;16.30;99.90;;;;;;5016977;28;20098;-77
2022/08/21 06:37:06;;;;;;;10.50;9.23;;;16.30;99.90;;;;;;5025048;28;20033;-77
2022/08/21 06:39:33;;;;;;;14.18;9.40;;;16.50;99.90;;;;;;5020898;28;20044;-77
2022/08/21 06:41:59;;;;;;;12.93;8.43;;;16.50;99.90;;;;;;5010818;28;20120;-77
2022/08/21 06:44:25;;;;;;;10.48;9.38;;;16.60;99.90;;;;;;5017276;28;20034;-77
2022/08/21 06:46:51;;;;;;;12.88;9.35;;;16.70;99.90;;;;;;5018539;28;20440;-77
2022/08/21 06:49:16;;;;;;;11.60;9.27;;;16.80;99.90;;;;;;5017257;28;20299;-77
2022/08/21 06:51:42;;;;;;;9.90;8.85;;;16.90;99.90;;;;;;5010917;28;20480;-77
2022/08/21 06:54:08;;;;;;;10.02;9.02;;;17.10;99.90;;;;;;5021191;28;20076;-77
2022/08/21 06:56:36;;;;;;;11.43;9.70;;;17.20;99.90;;;;;;5021181;28;20038;-77
2022/08/21 06:59:02;;;;;;;12.15;9.23;;;17.30;99.90;;;;;;5021532;28;20250;-77
2022/08/21 07:01:28;;;;;;;9.48;7.85;;;17.50;99.90;;;;;;5014910;28;20034;-77
2022/08/21 07:03:54;;;;;;;12.68;9.45;;;17.60;99.90;;;;;;5016639;28;20040;-78
2022/08/21 07:06:19;;;;;;;13.27;8.70;;;17.90;99.90;;;;;;5014687;28;20022;-77
2022/08/21 07:08:45;;;;;;;11.70;8.55;;;18.30;99.90;;;;;;5019331;28;20488;-77
2022/08/21 07:11:16;;;;;;;9.35;8.40;;;18.50;99.90;;;;;;5025795;28;20279;-77
2022/08/21 07:13:42;;;;;;;9.43;8.18;;;18.70;99.90;;;;;;5024442;28;20118;-77
2022/08/21 07:16:08;;;;;;;9.68;8.55;;;18.80;99.90;;;;;;5022618;28;20079;-77
2022/08/21 07:18:34;;;;;;;10.35;7.97;;;18.90;99.90;;;;;;5020945;28;20202;-77
2022/08/21 07:21:03;;;;;;;10.13;8.88;;;19.00;99.90;;;;;;5020980;28;20034;-77
2022/08/21 07:23:35;;;;;;;8.40;7.45;;;19.10;99.90;;;;;;5018072;28;20501;-77
2022/08/21 07:26:01;;;;;;;9.23;7.95;;;19.30;99.90;;;;;;5024299;28;20034;-77
2022/08/21 07:28:28;;;;;;;9.60;8.60;;;19.50;99.90;;;;;;5022567;28;20120;-77
2022/08/21 07:30:57;;;;;;;8.40;7.50;;;19.60;99.90;;;;;;5013913;28;20026;-77
2022/08/21 07:33:24;;;;;;;10.13;7.68;;;19.70;99.90;;;;;;5024686;28;20026;-77
2022/08/21 07:35:50;;;;;;;8.27;7.13;;;19.80;99.90;;;;;;5026959;28;20099;-77
2022/08/21 07:38:15;;;;;;;8.23;7.03;;;19.90;99.90;;;;;;5021657;28;20470;-77
2022/08/21 07:40:41;;;;;;;8.55;6.70;;;20.10;99.90;;;;;;5020213;28;20037;-77
2022/08/21 07:43:07;;;;;;;7.57;6.35;;;20.30;99.90;;;;;;5019819;28;20026;-77
2022/08/21 07:45:33;;;;;;;7.80;7.00;;;20.60;99.90;;;;;;5027692;28;20278;-77
2022/08/21 07:47:58;;;;;;;8.05;6.32;;;20.80;99.90;;;;;;5019983;28;20033;-77
2022/08/21 07:50:25;;;;;;;9.40;6.95;;;20.90;99.90;;;;;;5016110;28;20075;-77
2022/08/21 07:52:50;;;;;;;7.95;6.75;;;21.00;99.90;;;;;;5015156;28;20040;-77
2022/08/21 07:55:18;;;;;;;8.52;6.28;;;21.10;99.90;;;;;;5025592;28;20029;-78
2022/08/21 07:57:45;;;;;;;9.45;6.82;;;21.20;99.90;;;;;;5018699;28;20081;-77
2022/08/21 08:00:14;;;;;;;10.27;6.22;;;21.30;99.90;;;;;;5020245;28;20040;-77
2022/08/21 08:02:40;;;;;;;7.90;6.00;;;21.40;99.90;;;;;;5012362;28;20091;-75
2022/08/21 08:05:09;;;;;;;9.25;7.55;;;21.60;99.90;;;;;;5017421;28;20033;-75
2022/08/21 08:07:35;;;;;;;10.68;7.10;;;21.70;99.90;;;;;;5021463;28;20044;-75
2022/08/21 08:10:02;;;;;;;9.05;5.80;;;21.80;99.90;;;;;;5015898;28;20470;-75
2022/08/21 08:12:29;;;;;;;11.32;6.15;;;21.90;99.90;;;;;;5013351;28;20034;-75
2022/08/21 08:14:59;;;;;;;9.07;6.07;;;21.90;99.90;;;;;;5018024;28;20515;-75
2022/08/21 08:17:25;;;;;;;6.28;4.70;;;21.90;99.90;;;;;;4669265;28;10000030;-75
2022/08/21 08:19:51;;;;;;;8.50;4.78;;;22.00;99.90;;;;;;5017684;28;20044;-75
2022/08/21 08:22:21;;;;;;;8.90;4.28;;;22.20;99.90;;;;;;5020238;28;20041;-76
2022/08/21 08:24:48;;;;;;;8.30;3.88;;;22.40;99.90;;;;;;5018436;28;20068;-76
2022/08/21 08:27:14;;;;;;;13.02;4.68;;;22.60;99.90;;;;;;5016304;28;20087;-75
2022/08/21 08:29:40;;;;;;;10.90;4.75;;;22.60;99.90;;;;;;5015620;28;20039;-75
2022/08/21 08:32:09;;;;;;;8.15;4.55;;;22.70;99.90;;;;;;5015089;28;20393;-75
2022/08/21 08:34:36;;;;;;;8.10;3.67;;;22.70;99.90;;;;;;5019780;28;20033;-75
2022/08/21 08:37:03;;;;;;;7.75;3.22;;;22.80;99.90;;;;;;5018642;28;20053;-75
2022/08/21 08:39:28;;;;;;;8.18;3.00;;;22.90;99.90;;;;;;5020820;28;20112;-75
2022/08/21 08:42:31;;;;;;;7.68;3.10;;;23.10;99.90;;;;;;5014026;28;20037;-75
2022/08/21 08:45:19;;;;;;;9.70;3.08;;;23.30;99.90;;;;;;4994860;28;20087;-75
2022/08/21 08:47:51;;;;;;;10.40;3.05;;;23.50;99.90;;;;;;5019692;28;20068;-75
2022/08/21 08:50:21;;;;;;;7.00;2.47;;;23.50;99.90;;;;;;5015999;28;20033;-75
2022/08/21 08:53:31;;;;;;;8.10;3.45;;;23.50;99.90;;;;;;5014044;28;20053;-75
2022/08/21 08:55:59;;;;;;;6.05;2.60;;;23.60;99.90;;;;;;4997896;28;20041;-75
2022/08/21 08:58:32;;;;;;;5.63;2.30;;;23.70;99.90;;;;;;5007012;28;20045;-75
2022/08/21 09:00:59;;;;;;;10.57;3.67;;;23.80;99.90;;;;;;5009815;28;20026;-75
2022/08/21 09:03:27;;;;;;;9.38;2.45;;;23.90;99.30;;;;;;5019403;28;20437;-75
2022/08/21 09:06:19;;;;;;;7.45;2.47;;;23.90;99.70;;;;;;5014317;28;20029;-75
2022/08/21 09:09:25;;;;;;;12.52;4.03;;;24.00;98.70;;;;;;5021644;28;20030;-75
2022/08/21 09:12:35;;;;;;;8.93;3.15;;;24.10;96.50;;;;;;5018059;28;20029;-75
2022/08/21 09:15:18;;;;;;;6.47;3.28;;;24.00;96.90;;;;;;4955307;28;20533;-77
2022/08/21 09:17:43;;;;;;;;;;;24.10;96.80;;;;;;5007934;28;20038;-76
2022/08/21 09:20:36;;;;;;;8.95;3.13;;;24.30;94.00;;;;;;5015117;28;19928;-76
2022/08/21 09:23:17;;;;;;;8.00;2.70;;;24.40;93.70;;;;;;5015351;28;20299;-77
2022/08/21 09:26:06;;;;;;;8.32;3.20;;;24.60;93.10;;;;;;5016542;28;20272;-77
2022/08/21 09:28:34;;;;;;;9.55;2.92;;;24.60;91.90;;;;;;5020176;28;20033;-77
2022/08/21 09:31:03;;;;;;;6.85;2.97;;;24.80;93.20;;;;;;5016846;28;20065;-77
2022/08/21 09:33:28;;;;;;;11.00;3.30;;;24.90;91.70;;;;;;5018212;28;20124;-77
2022/08/21 09:35:58;;;;;;;7.20;3.40;;;24.90;90.20;;;;;;5017540;28;20112;-77
2022/08/21 09:38:36;;;;;;;10.32;3.83;;;24.80;88.00;;;;;;5019738;28;20117;-76
2022/08/21 09:41:08;;;;;;;9.02;3.20;;;24.90;87.20;;;;;;5006662;28;20022;-77
2022/08/21 09:43:34;;;;;;;7.30;3.10;;;24.80;87.80;;;;;;5019970;28;20037;-75
2022/08/21 09:46:09;;;;;;;8.63;3.42;;;24.60;90.00;;;;;;5015804;28;20433;-76
2022/08/21 09:48:43;;;;;;;8.70;3.00;;;24.60;90.20;;;;;;5007359;28;20033;-75
2022/08/21 09:51:15;;;;;;;8.88;2.80;;;24.40;89.90;;;;;;5015559;28;20155;-75
2022/08/21 09:53:49;;;;;;;7.65;3.05;;;24.30;90.60;;;;;;5015184;28;20030;-75
2022/08/21 09:59:25;;;;;;;10.95;3.00;;;24.10;91.90;;;;;;5020631;28;20040;-74
2022/08/21 10:01:52;;;;;;;7.97;3.00;;;24.10;91.30;;;;;;5019150;28;20379;-75
2022/08/21 10:04:28;;;;;;;7.47;2.63;;;24.30;90.80;;;;;;5009303;28;20133;-74
2022/08/21 10:06:54;;;;;;;8.13;3.05;;;24.30;89.00;;;;;;5010710;28;20108;-75
2022/08/21 10:09:21;;;;;;;9.20;2.72;;;24.10;88.90;;;;;;5012711;28;20108;-75
2022/08/21 10:12:00;;;;;;;9.50;2.75;;;24.10;85.60;;;;;;5001866;28;20689;-75
2022/08/21 10:14:26;;;;;;;7.63;2.55;;;24.20;85.30;;;;;;5013178;28;20022;-74
2022/08/21 10:17:10;;;;;;;5.72;2.28;;;24.20;84.00;;;;;;5008990;28;20026;-74
2022/08/21 10:20:06;;;;;;;8.30;2.63;;;24.10;85.30;;;;;;5015169;28;20309;-74
2022/08/21 10:22:32;;;;;;;5.03;2.40;;;24.10;85.90;;;;;;5011011;28;20120;-74
2022/08/21 10:25:00;;;;;;;6.70;2.30;;;24.30;85.30;;;;;;5018568;28;20025;-74
2022/08/21 10:27:47;;;;;;;6.60;2.60;;;24.30;84.50;;;;;;5018434;28;20052;-74
2022/08/21 10:30:40;;;;;;;5.20;2.35;;;24.20;85.10;;;;;;5009048;28;20046;-75
2022/08/21 10:33:39;;;;;;;5.18;2.47;;;24.40;87.00;;;;;;5008810;28;20026;-74
2022/08/21 10:36:13;;;;;;;8.90;3.00;;;24.50;82.40;;;;;;5019140;28;20033;-75
2022/08/21 10:38:39;;;;;;;5.43;2.40;;;24.80;81.30;;;;;;5013920;28;20063;-75
2022/08/21 10:41:40;;;;;;;9.18;3.00;;;25.00;79.30;;;;;;5019112;28;20033;-75
2022/08/21 10:44:24;;;;;;;6.20;2.58;;;25.20;78.20;;;;;;5013245;28;20545;-75
2022/08/21 10:46:56;;;;;;;7.10;2.50;;;25.20;78.60;;;;;;5022234;28;20522;-75
2022/08/21 10:49:39;;;;;;;6.72;2.53;;;25.40;77.70;;;;;;5021284;28;20018;-76
2022/08/21 10:52:43;;;;;;;4.43;2.20;;;25.40;75.30;;;;;;5017908;28;20096;-74
2022/08/21 10:55:17;;;;;;;6.32;2.35;;;25.00;75.00;;;;;;5019986;28;20144;-75
2022/08/21 10:58:11;;;;;;;5.78;2.40;;;24.70;77.50;;;;;;5021343;28;20529;-75
2022/08/21 11:00:48;;;;;;;5.47;2.10;;;24.60;77.90;;;;;;5022220;28;20111;-75
2022/08/21 11:03:36;;;;;;;5.60;1.92;;;24.80;78.00;;;;;;5017756;28;20056;-77
2022/08/21 11:06:09;;;;;;;5.40;2.35;;;25.00;77.10;;;;;;5014608;28;20567;-77
2022/08/21 11:08:49;;;;;;;5.30;2.42;;;25.20;74.00;;;;;;5013116;28;20042;-78
2022/08/21 11:11:36;;;;;;;7.53;2.70;;;25.50;74.50;;;;;;5022209;28;20088;-77
2022/08/21 11:14:44;;;;;;;6.18;2.40;;;25.80;75.00;;;;;;5016812;28;20359;-79
2022/08/21 11:17:13;;;;;;;8.45;2.40;;;26.00;77.40;;;;;;5007020;28;20185;-79
2022/08/21 11:19:49;;;;;;;5.68;2.40;;;26.30;75.40;;;;;;5015785;28;20038;-79
2022/08/21 11:22:31;;;;;;;8.48;2.45;;;26.50;73.40;;;;;;5015570;28;20034;-78
2022/08/21 11:25:03;;;;;;;4.43;2.10;;;26.80;71.60;;;;;;5023987;28;20099;-78
2022/08/21 11:27:28;;;;;;;8.10;2.40;;;26.90;72.70;;;;;;5021873;28;20087;-78
2022/08/21 11:29:58;;;;;;;6.07;2.10;;;27.00;72.70;;;;;;5020588;28;20025;-78
2022/08/21 11:32:47;;;;;;;6.30;2.20;;;27.10;75.20;;;;;;5013617;28;20125;-78
2022/08/21 11:35:29;;;;;;;5.05;2.00;;;27.20;70.40;;;;;;5011344;28;20472;-78
2022/08/21 11:37:58;;;;;;;4.63;1.95;;;27.30;70.10;;;;;;5024800;28;20594;-78
2022/08/21 11:40:42;;;;;;;4.80;2.15;;;27.50;69.90;;;;;;5020046;28;20021;-77
2022/08/21 11:43:36;;;;;;;6.32;2.10;;;27.60;68.30;;;;;;5016609;28;20128;-77
2022/08/21 11:46:31;;;;;;;5.28;2.13;;;27.70;68.50;;;;;;5017766;28;20034;-77
2022/08/21 11:49:18;;;;;;;7.97;2.30;;;27.80;67.50;;;;;;5017929;28;20087;-78
2022/08/21 11:52:00;;;;;;;5.25;2.10;;;27.70;66.30;;;;;;5013546;28;20103;-77
2022/08/21 11:54:48;;;;;;;3.13;2.00;;;27.60;67.10;;;;;;5020990;28;20044;-78
2022/08/21 11:57:19;;;;;;;7.75;2.42;;;27.50;67.10;;;;;;5016204;28;20072;-78
2022/08/21 11:59:49;;;;;;;5.63;2.10;;;27.50;67.10;;;;;;5016473;28;20112;-77
2022/08/21 12:02:20;;;;;;;6.40;2.00;;;27.70;66.40;;;;;;5002403;28;20034;-77
2022/08/21 12:04:59;;;;;;;4.15;2.03;;;27.80;67.10;;;;;;5010354;28;20381;-77
2022/08/21 12:07:40;;;;;;;6.65;2.00;;;28.00;65.50;;;;;;5020462;28;20116;-78
2022/08/21 12:10:20;;;;;;;9.23;2.17;;;28.20;64.00;;;;;;5018373;28;20095;-77
2022/08/21 12:12:46;;;;;;;4.35;1.90;;;28.30;63.60;;;;;;5012289;28;20053;-77
2022/08/21 12:15:21;;;;;;;5.53;2.25;;;28.30;64.70;;;;;;5019057;28;20107;-77
2022/08/21 12:17:54;;;;;;;5.32;2.33;;;28.40;63.70;;;;;;5015339;28;20366;-77
2022/08/21 12:20:20;;;;;;;8.02;2.22;;;28.40;63.10;;;;;;5023225;28;20038;-77
2022/08/21 12:23:17;;;;;;;5.35;2.00;;;28.50;62.20;;;;;;5017508;28;20017;-77
2022/08/21 12:26:00;;;;;;;5.47;1.90;;;28.60;59.80;;;;;;5001192;28;20449;-79
2022/08/21 12:28:26;;;;;;;4.88;1.90;;;28.50;59.40;;;;;;5015087;28;20038;-76
2022/08/21 12:30:52;;;;;;;7.05;2.25;;;28.50;60.00;;;;;;5012212;28;20037;-75
2022/08/21 12:33:35;;;;;;;4.82;1.90;;;28.70;59.70;;;;;;5018398;28;20026;-75
2022/08/21 12:36:21;;;;;;;3.40;1.75;;;28.90;58.70;;;;;;5021164;28;20049;-76
2022/08/21 12:38:54;;;;;;;4.80;2.17;;;29.10;58.20;;;;;;5020520;28;20487;-76
2022/08/21 12:41:25;;;;;;;6.75;2.10;;;29.10;59.30;;;;;;5018519;28;20025;-76
2022/08/21 12:43:57;;;;;;;3.47;2.05;;;29.00;59.40;;;;;;5015852;28;20034;-76
2022/08/21 12:46:34;;;;;;;5.93;2.30;;;29.00;58.70;;;;;;5013891;28;20128;-76
2022/08/21 12:49:16;;;;;;;4.50;1.95;;;29.00;59.60;;;;;;5023436;28;20363;-76
2022/08/21 12:52:02;;;;;;;3.50;1.95;;;29.00;58.80;;;;;;5013384;28;20041;-76
2022/08/21 12:54:37;;;;;;;7.13;2.20;;;28.90;57.80;;;;;;5020574;28;20120;-76
2022/08/21 12:57:06;;;;;;;4.88;1.83;;;29.00;57.60;;;;;;5020882;28;20037;-76
2022/08/21 12:59:36;;;;;;;3.25;1.73;;;28.90;57.00;;;;;;5018791;28;20545;-76
2022/08/21 13:02:12;;;;;;;4.07;1.92;;;28.80;57.60;;;;;;5017426;28;20025;-76
2022/08/21 13:04:41;;;;;;;5.43;2.05;;;28.90;58.20;;;;;;5015740;28;20386;-76
2022/08/21 13:07:11;;;;;;;4.30;1.80;;;28.80;57.10;;;;;;5019968;28;20034;-75
2022/08/21 13:09:53;;;;;;;3.88;1.77;;;28.60;57.40;;;;;;5022336;28;20042;-78
2022/08/21 13:12:21;;;;;;;5.22;1.92;;;28.60;56.70;;;;;;5018196;28;20041;-81
2022/08/21 13:14:49;;;;;;;5.65;2.00;;;28.70;56.60;;;;;;5020959;28;20614;-80
2022/08/21 13:17:21;;;;;;;5.03;2.15;;;28.70;56.30;;;;;;5009938;28;20037;-79
2022/08/21 13:20:02;;;;;;;4.97;1.70;;;28.80;56.40;;;;;;5016696;28;20315;-78
2022/08/21 13:22:28;;;;;;;4.30;1.67;;;28.90;56.10;;;;;;5009164;28;20034;-79
2022/08/21 13:24:54;;;;;;;4.18;1.90;;;28.90;55.70;;;;;;5017241;28;20033;-78
2022/08/21 13:27:29;;;;;;;4.25;1.95;;;28.80;55.80;;;;;;5016340;28;20087;-81
2022/08/21 13:30:12;;;;;;;5.18;1.90;;;28.70;55.90;;;;;;5020782;28;20120;-82
2022/08/21 13:32:48;;;;;;;6.82;2.15;;;28.70;56.70;;;;;;5013040;28;20493;-83
2022/08/21 13:35:25;;;;;;;7.40;1.92;;;28.40;56.40;;;;;;5019631;28;20108;-80
2022/08/21 13:37:52;;;;;;;3.50;1.80;;;28.20;57.20;;;;;;5011783;28;20112;-81
2022/08/21 13:40:28;;;;;;;4.13;1.80;;;28.20;57.00;;;;;;5021856;28;20056;-82
2022/08/21 13:42:55;;;;;;;3.25;1.70;;;28.40;58.40;;;;;;5013868;28;20036;-80
2022/08/21 13:45:31;;;;;;;3.88;2.08;;;28.70;57.20;;;;;;5023081;28;20497;-80
2022/08/21 13:47:58;;;;;;;3.75;1.70;;;28.80;55.30;;;;;;5018798;28;20045;-78